Latest Coastal Weather Observations for Cape Byron

IDN60701

Issued at 6:52 am EST Sunday 25 September 2016 (issued every 10 minutes, with the page automatically refreshed every 10 minutes)

About coastal observations | Map of coastal stations | Coastal observations for NSW | Marine services | Other Formats
Station Details ID: 058216 Name: CAPE BYRON AWS Lat: -28.64 Lon: 153.64 Height: 95.0 m
Data from the previous 72 hours. | See also: Recent months at Cape Byron
Date/Time
EST
Temp
°C
Wind Pressure Rain since
9am
mm
Weather Cloud Vis
km
Sea
Height
m
Swell
Dir  Spd
kts
Gust
kts
hPa Trend Height
m
Period
s
Dir
25/06:30am 17.0 NW 5 7 1008.7 - 0.0 - - - - - - -
25/06:00am 17.2 N 4 6 1008.6 - 0.0 - - - - - - -
25/05:30am 16.9 N 4 6 1008.4 - 0.0 - - - - - - -
25/05:00am 15.9 NNW 4 7 1008.5 - 0.0 - - - - - - -
25/04:30am 15.2 NW 4 7 1007.7 - 0.0 - - - - - - -
25/04:00am 15.4 NW 4 6 1007.7 - 0.0 - - - - - - -
25/03:30am 16.3 NNW 3 5 1007.8 - 0.0 - - - - - - -
25/03:00am 16.8 NNW 6 9 1007.8 - 0.0 - - - - - - -
25/02:30am 16.4 NNW 4 6 1008.1 - 0.0 - - - - - - -
25/02:00am 16.5 NNW 5 8 1008.3 - 0.0 - - - - - - -
25/01:30am 16.2 NNW 4 6 1008.9 - 0.0 - - - - - - -
25/01:00am 15.9 NNW 3 5 1009.1 - 0.0 - - - - - - -
25/12:30am 16.6 NNE 4 6 1009.3 - 0.0 - - - - - - -
25/12:00am 17.0 NW 4 6 1009.3 - 0.0 - - - - - - -
 
Date/Time
EST
Temp
°C
Wind Pressure Rain since
9am
mm
Weather Cloud Vis
km
Sea
Height
m
Swell
Dir  Spd
kts
Gust
kts
hPa Trend Height
m
Period
s
Dir
24/11:30pm 17.4 N 5 7 1009.6 - 0.0 - - - - - - -
24/11:00pm 16.9 NNW 4 6 1009.9 - 0.0 - - - - - - -
24/10:30pm 17.4 NW 4 7 1010.2 - 0.0 - - - - - - -
24/10:00pm 17.8 NNW 5 7 1010.3 - 0.0 - - - - - - -
24/09:30pm 18.1 NNW 5 9 1010.3 - 0.0 - - - - - - -
24/09:00pm 18.5 NNW 7 11 1010.3 - 0.0 - - - - - - -
24/08:30pm 18.5 NNW 7 9 1010.5 - 0.0 - - - - - - -
24/08:00pm 18.8 N 7 8 1010.6 - 0.0 - - - - - - -
24/07:30pm 19.2 N 8 10 1010.4 - 0.0 - - - - - - -
24/07:00pm 20.1 NNE 10 13 1010.3 - 0.0 - - - - - - -
24/06:30pm 20.2 NNE 10 13 1010.1 - 0.0 - - - - - - -
24/06:00pm 20.3 NNE 9 12 1009.9 - 0.0 - - - - - - -
24/05:30pm 20.5 NE 10 13 1009.6 - 0.0 - - - - - - -
24/05:00pm 21.2 NE 11 14 1009.5 - 0.0 - - - - - - -
24/04:30pm 21.8 NE 10 16 1009.2 - 0.0 - - - - - - -
24/04:00pm 21.8 NE 16 18 1009.1 - 0.0 - - - - - - -
24/03:30pm 23.1 ENE 14 18 1009.1 - 0.0 - - - - - - -
24/03:00pm 23.6 NE 15 17 1009.1 - 0.0 - - - - - - -
24/02:30pm 24.6 ENE 11 15 1009.2 - 0.0 - - - - - - -
24/02:00pm 24.3 NE 13 17 1009.4 - 0.0 - - - - - - -
24/01:30pm 25.1 ENE 11 14 1009.8 - 0.0 - - - - - - -
24/01:00pm 25.1 NE 12 15 1010.2 - 0.0 - - - - - - -
24/12:30pm 25.6 NE 9 10 1010.5 - 0.0 - - - - - - -
24/12:00pm 25.2 ENE 7 8 1011.1 - 0.0 - - - - - - -
24/11:30am 25.4 NE 8 9 1011.6 - 0.0 - - - - - - -
24/11:00am 23.9 NE 7 8 1011.9 - 0.0 - - - - - - -
24/10:30am 23.0 NNE 6 8 1012.4 - 0.0 - - - - - - -
24/10:00am 22.4 N 4 7 1012.8 - 0.0 - - - - - - -
24/09:30am 22.3 NNE 4 5 1013.0 - 0.0 - - - - - - -
24/09:00am 22.2 N 4 7 1013.2 - 0.0 - - - - - - -
24/08:30am 21.4 NNW 4 6 1013.1 - 0.0 - - - - - - -
24/08:00am 19.6 WNW 3 6 1013.0 - 0.0 - - - - - - -
24/07:30am 18.0 W 7 8 1012.9 - 0.0 - - - - - - -
24/07:00am 17.2 W 8 9 1012.7 - 0.0 - - - - - - -
24/06:30am 17.7 W 6 7 1012.2 - 0.0 - - - - - - -
24/06:00am 17.5 W 7 8 1011.9 - 0.0 - - - - - - -
24/05:30am 17.4 WSW 7 8 1011.6 - 0.0 - - - - - - -
24/05:00am 16.4 SW 7 7 1011.3 - 0.0 - - - - - - -
24/04:30am 17.2 WSW 7 8 1011.1 - 0.0 - - - - - - -
24/04:00am 17.2 W 9 11 1010.7 - 0.0 - - - - - - -
24/03:30am 17.2 W 10 12 1010.6 - 0.0 - - - - - - -
24/03:00am 17.1 W 8 9 1010.7 - 0.0 - - - - - - -
24/02:30am 16.4 WNW 7 9 1010.7 - 0.0 - - - - - - -
24/02:00am 16.4 WNW 7 9 1011.0 - 0.0 - - - - - - -
24/01:30am 16.2 WNW 6 8 1011.1 - 0.0 - - - - - - -
24/01:00am 16.2 WNW 6 8 1011.1 - 0.0 - - - - - - -
24/12:30am 16.0 WNW 6 8 1011.1 - 0.0 - - - - - - -
24/12:00am 15.8 WNW 5 7 1011.4 - 0.0 - - - - - - -
 
Date/Time
EST
Temp
°C
Wind Pressure Rain since
9am
mm
Weather Cloud Vis
km
Sea
Height
m
Swell
Dir  Spd
kts
Gust
kts
hPa Trend Height
m
Period
s
Dir
23/11:30pm 15.5 NW 6 9 1011.3 - 0.0 - - - - - - -
23/11:00pm 16.0 NW 7 8 1011.4 - 0.0 - - - - - - -
23/10:30pm 16.4 NW 7 8 1011.6 - 0.0 - - - - - - -
23/10:00pm 16.0 NW 6 8 1011.6 - 0.0 - - - - - - -
23/09:30pm 16.5 NW 5 7 1011.7 - 0.0 - - - - - - -
23/09:00pm 17.0 NW 5 7 1011.8 - 0.0 - - - - - - -
23/08:30pm 17.4 NW 6 7 1011.7 - 0.0 - - - - - - -
23/08:00pm 18.1 NNW 4 6 1011.5 - 0.0 - - - - - - -
23/07:30pm 19.2 NNE 7 8 1011.0 - 0.0 - - - - - - -
23/07:00pm 18.9 NE 8 9 1010.5 - 0.0 - - - - - - -
23/06:30pm 19.1 NE 8 9 1010.2 - 0.0 - - - - - - -
23/06:00pm 19.2 NE 8 10 1009.8 - 0.0 - - - - - - -
23/05:30pm 20.0 ENE 7 9 1009.3 - 0.0 - - - - - - -
23/05:00pm 21.1 ENE 6 9 1009.0 - 0.0 - - - - - - -
23/04:30pm 22.0 ENE 5 7 1008.9 - 0.0 - - - - - - -
23/04:00pm 22.2 E 5 8 1008.8 - 0.0 - - - - - - -
23/03:30pm 22.4 E 7 9 1008.6 - 0.0 - - - - - - -
23/03:00pm 22.9 E 9 11 1008.5 - 0.0 - - - - - - -
23/02:30pm 21.9 ESE 11 13 1008.5 - 0.0 - - - - - - -
23/02:00pm 21.1 SE 12 15 1008.8 - 0.0 - - - - - - -
23/01:30pm 21.5 SE 10 14 1009.0 - 0.0 - - - - - - -
23/01:00pm 21.3 SE 9 12 1009.2 - 0.0 - - - - - - -
23/12:30pm 21.7 SSE 8 12 1009.5 - 0.0 - - - - - - -
23/12:00pm 21.5 SE 9 13 1009.7 - 0.0 - - - - - - -
23/11:30am 21.9 SW 10 15 1010.1 - 0.0 - - - - - - -
23/11:00am 22.1 WSW 8 13 1010.5 - 0.0 - - - - - - -
23/10:30am 21.1 WSW 9 14 1010.7 - 0.0 - - - - - - -
23/10:00am 20.3 WSW 9 15 1010.8 - 0.0 - - - - - - -
23/09:30am 19.5 SW 11 15 1011.1 - 0.0 - - - - - - -
23/09:00am 18.7 SW 11 15 1010.8 - 0.0 - - - - - - -
23/08:30am 17.8 WSW 11 16 1011.0 - 0.0 - - - - - - -
23/08:00am 16.6 WSW 14 20 1010.8 - 0.0 - - - - - - -
23/07:30am 15.6 WSW 14 19 1010.5 - 0.0 - - - - - - -
23/07:00am 14.4 W 14 20 1010.3 - 0.0 - - - - - - -
23/06:30am 13.8 WSW 16 19 1010.0 - 0.0 - - - - - - -
23/06:00am 13.5 W 16 20 1009.7 - 0.0 - - - - - - -
23/05:30am 13.5 W 16 21 1009.5 - 0.0 - - - - - - -
23/05:00am 13.7 W 16 20 1009.3 - 0.0 - - - - - - -
23/04:30am 13.8 W 15 19 1009.0 - 0.0 - - - - - - -
23/04:00am 14.1 W 16 20 1009.0 - 0.0 - - - - - - -
23/03:30am 14.1 W 14 17 1009.0 - 0.0 - - - - - - -
23/03:00am 14.2 W 12 15 1009.2 - 0.0 - - - - - - -
23/02:30am 14.6 W 14 19 1009.4 - 0.0 - - - - - - -
23/02:00am 15.0 W 16 21 1009.7 - 0.0 - - - - - - -
23/01:30am 15.1 WSW 17 24 1009.7 - 0.0 - - - - - - -
23/01:00am 15.0 W 15 20 1009.9 - 0.0 - - - - - - -
23/12:30am 15.2 W 16 20 1010.2 - 0.0 - - - - - - -
23/12:00am 15.7 W 15 19 1010.4 - 0.0 - - - - - - -
 
Date/Time
EST
Temp
°C
Wind Pressure Rain since
9am
mm
Weather Cloud Vis
km
Sea
Height
m
Swell
Dir  Spd
kts
Gust
kts
hPa Trend Height
m
Period
s
Dir
22/11:30pm 15.7 WNW 13 19 1010.6 - 0.0 - - - - - - -
22/11:00pm 15.8 WNW 12 17 1010.6 - 0.0 - - - - - - -
22/10:30pm 16.3 WNW 12 16 1010.7 - 0.0 - - - - - - -
22/10:00pm 16.8 WNW 13 19 1011.0 - 0.0 - - - - - - -
22/09:30pm 17.2 W 15 21 1011.1 - 0.0 - - - - - - -
22/09:00pm 17.3 W 13 19 1010.8 - 0.0 - - - - - - -
22/08:30pm 17.2 WNW 12 18 1010.7 - 0.0 - - - - - - -
22/08:00pm 17.6 WNW 11 16 1010.5 - 0.0 - - - - - - -
22/07:30pm 17.6 WNW 8 12 1010.5 - 0.0 - - - - - - -
22/07:00pm 18.3 WNW 10 13 1010.1 - 0.0 - - - - - - -
22/06:30pm 18.8 WNW 10 15 1009.8 - 0.0 - - - - - - -
22/06:00pm 19.3 W 11 16 1009.4 - 0.0 - - - - - - -
22/05:30pm 20.1 WNW 12 17 1008.8 - 0.0 - - - - - - -
22/05:00pm 21.3 W 16 28 1008.2 - 0.0 - - - - - - -
22/04:43pm 21.7 WNW 16 26 1007.8 - 0.0 - - - - - - -
22/04:30pm 22.0 W 18 27 1007.6 - 0.0 - - - - - - -
22/04:04pm 22.5 W 17 28 1007.4 - 0.0 - - - - - - -
22/04:00pm 22.6 W 17 25 1007.4 - 0.0 - - - - - - -
22/03:58pm 22.8 W 16 26 1007.4 - 0.0 - - - - - - -
22/03:30pm 23.3 W 14 21 1007.2 - 0.0 - - - - - - -
22/03:00pm 23.4 W 15 22 1007.3 - 0.0 - - - - - - -
22/02:30pm 23.3 W 15 25 1007.5 - 0.0 - - - - - - -
22/02:00pm 23.7 W 15 25 1007.7 - 0.0 - - - - - - -
22/01:59pm 23.8 W 15 25 1007.7 - 0.0 - - - - - - -
22/01:48pm 23.2 W 14 24 1007.9 - 0.0 - - - - - - -
22/01:30pm 23.3 W 7 11 1008.2 - 0.0 - - - - - - -
22/01:00pm 22.8 W 11 17 1008.5 - 0.0 - - - - - - -
22/12:30pm 23.3 NW 8 14 1008.9 - 0.0 - - - - - - -
22/12:00pm 22.2 WNW 8 15 1009.3 - 0.0 - - - - - - -
22/11:30am 20.9 W 14 23 1009.9 - 0.0 - - - - - - -
22/11:18am 20.6 W 15 25 1009.8 - 0.0 - - - - - - -
22/11:00am 21.3 WNW 8 19 1010.2 - 0.0 - - - - - - -
22/10:30am 20.4 W 9 14 1010.6 - 0.0 - - - - - - -
22/10:00am 19.6 W 13 20 1011.0 - 0.0 - - - - - - -
22/09:30am 19.0 W 15 22 1011.2 - 0.0 - - - - - - -
22/09:00am 18.6 W 14 20 1011.3 - 4.6 - - - - - - -
22/08:30am 17.9 W 13 19 1011.4 - 4.6 - - - - - - -
22/08:00am 17.4 WNW 11 20 1011.1 - 4.6 - - - - - - -
22/07:30am 17.1 WNW 10 16 1011.3 - 4.6 - - - - - - -
22/07:00am 15.9 WNW 9 13 1011.4 - 4.6 - - - - - - -

Other Formats:

Comma delimited format used in spreadsheet applications
http://www.bom.gov.au/fwo/IDN60701/IDN60701.94599.axf

JavaScript Object Notation format (JSON) in row-major order
http://www.bom.gov.au/fwo/IDN60701/IDN60701.94599.json